createdAt,value
2022-10-19T00:02:27.285Z,10.54
2022-10-19T00:04:58.843Z,10.55
2022-10-19T00:07:30.932Z,10.56
2022-10-19T00:10:02.665Z,10.59
2022-10-19T00:12:34.512Z,10.59
2022-10-19T00:15:06.044Z,10.59
2022-10-19T00:17:37.904Z,10.60
2022-10-19T00:20:09.394Z,10.60
2022-10-19T00:22:41.222Z,10.65
2022-10-19T00:25:12.707Z,10.70
2022-10-19T00:27:44.915Z,10.67
2022-10-19T00:30:16.501Z,10.67
2022-10-19T00:32:48.410Z,10.68
2022-10-19T00:35:19.906Z,10.69
2022-10-19T00:37:52.360Z,10.71
2022-10-19T00:40:23.941Z,10.70
2022-10-19T00:42:56.517Z,10.72
2022-10-19T00:45:28.057Z,10.72
2022-10-19T00:47:59.877Z,10.75
2022-10-19T00:50:31.412Z,10.72
2022-10-19T00:53:03.307Z,10.73
2022-10-19T00:55:34.784Z,10.77
2022-10-19T00:58:06.596Z,10.76
2022-10-19T01:00:38.182Z,10.78
2022-10-19T01:03:10.068Z,10.77
2022-10-19T01:05:41.616Z,10.80
2022-10-19T01:08:13.445Z,10.80
2022-10-19T01:10:45.012Z,10.74
2022-10-19T01:13:16.945Z,10.73
2022-10-19T01:15:48.470Z,10.77
2022-10-19T01:18:20.467Z,10.75
2022-10-19T01:20:51.961Z,10.76
2022-10-19T01:23:23.467Z,10.78
2022-10-19T01:25:55.234Z,10.77
2022-10-19T01:28:27.277Z,10.76
2022-10-19T01:30:59.138Z,10.77
2022-10-19T01:33:30.617Z,10.75
2022-10-19T01:36:02.491Z,10.71
2022-10-19T01:38:33.982Z,10.73
2022-10-19T01:41:05.846Z,10.72
2022-10-19T01:43:37.355Z,10.75
2022-10-19T01:46:08.861Z,9.05
2022-10-19T01:51:16.106Z,10.72
2022-10-19T01:53:47.697Z,10.68
2022-10-19T01:56:19.546Z,10.63
2022-10-19T01:58:51.039Z,10.60
2022-10-19T02:01:22.830Z,10.57
2022-10-19T02:03:54.315Z,10.53
2022-10-19T02:06:26.189Z,10.52
2022-10-19T02:08:57.673Z,10.53
2022-10-19T02:11:29.597Z,10.52
2022-10-19T02:14:01.093Z,10.49
2022-10-19T02:16:32.923Z,10.51
2022-10-19T02:19:04.538Z,10.53
2022-10-19T02:21:36.480Z,10.52
2022-10-19T02:24:07.964Z,10.52
2022-10-19T02:26:39.484Z,10.53
2022-10-19T02:29:10.989Z,10.54
2022-10-19T02:31:42.797Z,10.46
2022-10-19T02:34:14.309Z,10.61
2022-10-19T02:36:46.333Z,10.61
2022-10-19T02:39:17.815Z,10.62
2022-10-19T02:41:49.618Z,10.63
2022-10-19T02:44:21.112Z,10.59
2022-10-19T02:46:52.918Z,10.61
2022-10-19T02:49:24.431Z,10.54
2022-10-19T02:51:56.298Z,10.56
2022-10-19T02:54:27.781Z,10.59
2022-10-19T02:56:59.634Z,10.62
2022-10-19T02:59:31.129Z,10.61
2022-10-19T03:02:02.934Z,10.65
2022-10-19T03:04:34.522Z,10.62
2022-10-19T03:07:06.668Z,10.64
2022-10-19T03:09:38.167Z,10.65
2022-10-19T03:12:10.026Z,10.69
2022-10-19T03:14:41.511Z,10.67
2022-10-19T03:17:13.312Z,10.72
2022-10-19T03:19:44.819Z,10.68
2022-10-19T03:22:16.652Z,10.71
2022-10-19T03:24:48.406Z,10.72
2022-10-19T03:27:19.962Z,10.72
2022-10-19T03:29:51.516Z,10.73
2022-10-19T03:32:23.293Z,10.74
2022-10-19T03:34:54.781Z,10.77
2022-10-19T03:37:26.570Z,10.79
2022-10-19T03:39:58.045Z,10.80
2022-10-19T03:42:30.113Z,10.83
2022-10-19T03:45:01.944Z,10.80
2022-10-19T03:47:34.096Z,10.81
2022-10-19T03:50:06.095Z,10.82
2022-10-19T03:52:37.871Z,10.83
2022-10-19T03:55:10.354Z,10.83
2022-10-19T03:57:42.182Z,10.84
2022-10-19T04:00:13.675Z,10.84
2022-10-19T04:02:45.551Z,10.84
2022-10-19T04:05:17.036Z,10.87
2022-10-19T04:07:48.859Z,10.85
2022-10-19T04:10:20.376Z,10.83
2022-10-19T04:12:53.864Z,10.81
2022-10-19T04:15:25.700Z,10.84
2022-10-19T04:17:57.661Z,10.86
2022-10-19T04:20:29.190Z,10.86
2022-10-19T04:23:00.991Z,10.82
2022-10-19T04:25:32.483Z,10.84
2022-10-19T04:28:04.425Z,10.84
2022-10-19T04:30:35.949Z,10.82
2022-10-19T04:33:07.945Z,10.83
2022-10-19T04:35:39.427Z,10.83
2022-10-19T04:38:11.460Z,10.83
2022-10-19T04:40:43.286Z,10.84
2022-10-19T04:43:14.892Z,10.80
2022-10-19T04:45:46.715Z,10.81
2022-10-19T04:48:18.238Z,10.81
2022-10-19T04:50:50.072Z,10.81
2022-10-19T04:53:21.594Z,10.79
2022-10-19T04:55:53.485Z,10.79
2022-10-19T04:58:25.046Z,10.80
2022-10-19T05:00:56.918Z,10.79
2022-10-19T05:03:28.426Z,10.82
2022-10-19T05:06:00.276Z,10.82
2022-10-19T05:08:31.803Z,10.82
2022-10-19T05:11:03.838Z,10.84
2022-10-19T05:13:35.346Z,10.84
2022-10-19T05:16:07.309Z,10.83
2022-10-19T05:18:38.799Z,10.85
2022-10-19T05:21:10.304Z,10.83
2022-10-19T05:23:41.835Z,10.84
2022-10-19T05:26:13.603Z,10.87
2022-10-19T05:28:45.134Z,10.85
2022-10-19T05:31:17.627Z,10.88
2022-10-19T05:33:49.195Z,10.86
2022-10-19T05:36:20.815Z,10.90
2022-10-19T05:38:52.739Z,10.90
2022-10-19T05:41:24.760Z,10.94
2022-10-19T05:43:56.269Z,10.93
2022-10-19T05:46:28.157Z,10.94
2022-10-19T05:48:59.695Z,10.91
2022-10-19T05:51:31.442Z,10.91
2022-10-19T05:54:03.818Z,10.92
2022-10-19T05:56:35.637Z,10.86
2022-10-19T05:59:07.151Z,10.87
2022-10-19T06:01:39.166Z,10.85
2022-10-19T06:04:10.886Z,10.88
2022-10-19T06:06:42.871Z,10.91
2022-10-19T06:09:14.359Z,11.03
2022-10-19T06:11:46.286Z,10.95
2022-10-19T06:14:17.805Z,10.98
2022-10-19T06:16:49.674Z,11.07
2022-10-19T06:19:21.158Z,11.12
2022-10-19T06:21:53.045Z,11.13
2022-10-19T06:24:24.627Z,11.16
2022-10-19T06:26:56.506Z,11.11
2022-10-19T06:29:28.008Z,11.19
2022-10-19T06:32:00.784Z,11.22
2022-10-19T06:34:32.362Z,11.26
2022-10-19T06:37:03.952Z,11.26
2022-10-19T06:39:35.915Z,11.22
2022-10-19T06:42:07.825Z,11.25
2022-10-19T06:44:39.325Z,11.30
2022-10-19T06:47:11.123Z,11.34
2022-10-19T06:49:42.655Z,11.36
2022-10-19T06:52:14.617Z,11.33
2022-10-19T06:54:46.437Z,11.45
2022-10-19T06:57:17.944Z,11.44
2022-10-19T06:59:52.812Z,11.47
2022-10-19T07:02:25.194Z,11.55
2022-10-19T07:04:57.048Z,11.53
2022-10-19T07:07:28.553Z,11.66
2022-10-19T07:10:00.161Z,11.72
2022-10-19T07:12:31.671Z,11.88
2022-10-19T07:15:03.568Z,11.93
2022-10-19T07:17:35.425Z,12.08
2022-10-19T07:20:07.359Z,12.08
2022-10-19T07:22:38.863Z,12.14
2022-10-19T07:25:10.866Z,12.26
2022-10-19T07:27:42.602Z,12.37
2022-10-19T07:30:14.694Z,12.35
2022-10-19T07:32:47.163Z,12.44
2022-10-19T07:35:19.172Z,12.55
2022-10-19T07:37:50.682Z,12.73
2022-10-19T07:40:22.456Z,12.68
2022-10-19T07:42:53.962Z,12.60
2022-10-19T07:45:25.834Z,12.57
2022-10-19T07:47:57.326Z,12.75
2022-10-19T07:50:29.247Z,12.78
2022-10-19T07:53:02.658Z,12.87
2022-10-19T07:55:34.516Z,12.97
2022-10-19T07:58:06.047Z,13.10
2022-10-19T08:00:37.882Z,12.87
2022-10-19T08:03:57.109Z,13.08
2022-10-19T08:06:01.347Z,13.48
2022-10-19T08:08:33.179Z,13.60
2022-10-19T08:11:04.674Z,13.59
2022-10-19T08:13:36.476Z,13.60
2022-10-19T08:16:07.982Z,13.63
2022-10-19T08:18:39.903Z,13.52
2022-10-19T08:21:11.396Z,13.61
2022-10-19T08:23:43.409Z,13.68
2022-10-19T08:26:14.965Z,13.48
2022-10-19T08:28:46.788Z,13.28
2022-10-19T08:31:18.348Z,13.01
2022-10-19T08:33:50.253Z,12.97
2022-10-19T08:36:22.175Z,12.80
2022-10-19T08:38:54.007Z,12.88
2022-10-19T08:41:25.517Z,12.86
2022-10-19T08:43:57.401Z,13.05
2022-10-19T08:46:30.101Z,13.00
2022-10-19T08:49:02.455Z,12.93
2022-10-19T08:51:33.948Z,13.18
2022-10-19T08:54:05.845Z,13.31
2022-10-19T08:56:52.756Z,13.54
2022-10-19T08:59:24.586Z,13.75
2022-10-19T09:01:56.826Z,13.98
2022-10-19T09:04:28.649Z,14.12
2022-10-19T09:07:00.415Z,14.15
2022-10-19T09:09:32.503Z,14.03
2022-10-19T09:12:04.063Z,14.04
2022-10-19T09:14:36.775Z,13.96
2022-10-19T09:17:08.296Z,14.08
2022-10-19T09:19:40.155Z,14.15
2022-10-19T09:22:11.645Z,15.03
2022-10-19T09:24:44.209Z,14.92
2022-10-19T09:27:15.718Z,14.84
2022-10-19T09:29:47.700Z,14.79
2022-10-19T09:32:19.213Z,14.93
2022-10-19T09:34:51.274Z,14.80
2022-10-19T09:37:26.285Z,14.98
2022-10-19T09:39:58.226Z,15.25
2022-10-19T09:42:30.770Z,15.07
2022-10-19T09:45:02.281Z,14.77
2022-10-19T09:47:34.305Z,14.62
2022-10-19T09:50:06.130Z,14.82
2022-10-19T09:52:38.328Z,14.89
2022-10-19T09:55:09.838Z,14.66
2022-10-19T09:57:41.780Z,14.83
2022-10-19T10:00:13.293Z,14.72
2022-10-19T10:05:21.549Z,14.78
2022-10-19T10:07:53.588Z,14.92
2022-10-19T10:10:28.151Z,14.77
2022-10-19T10:13:02.352Z,15.01
2022-10-19T10:15:33.877Z,14.95
2022-10-19T10:18:05.465Z,14.69
2022-10-19T10:20:37.051Z,14.50
2022-10-19T10:23:08.937Z,14.40
2022-10-19T10:25:40.561Z,14.43
2022-10-19T10:28:12.430Z,14.88
2022-10-19T10:30:43.923Z,15.07
2022-10-19T10:33:26.988Z,14.75
2022-10-19T10:36:05.030Z,14.81
2022-10-19T10:38:36.997Z,14.84
2022-10-19T10:41:08.927Z,14.56
2022-10-19T10:43:40.833Z,14.76
2022-10-19T10:46:12.417Z,15.23
2022-10-19T10:48:44.499Z,15.10
2022-10-19T10:51:15.994Z,15.07
2022-10-19T10:53:47.868Z,15.27
2022-10-19T10:56:19.351Z,15.24
2022-10-19T10:58:51.381Z,15.29
2022-10-19T11:01:22.921Z,15.08
2022-10-19T11:03:54.764Z,14.65
2022-10-19T11:06:26.844Z,14.50
2022-10-19T11:08:58.402Z,14.61
2022-10-19T11:11:30.412Z,14.81
2022-10-19T11:14:02.256Z,15.06
2022-10-19T11:16:33.778Z,15.65
2022-10-19T11:19:06.008Z,16.02
2022-10-19T11:21:37.556Z,16.57
2022-10-19T11:24:09.449Z,16.83
2022-10-19T11:26:40.936Z,16.82
2022-10-19T11:29:12.784Z,15.91
2022-10-19T11:31:45.767Z,15.46
2022-10-19T11:34:18.656Z,15.23
2022-10-19T11:36:50.863Z,14.56
2022-10-19T11:39:22.766Z,11.72
2022-10-19T11:41:54.252Z,14.57
2022-10-19T11:44:27.033Z,14.81
2022-10-19T11:46:58.544Z,14.95
2022-10-19T11:49:30.382Z,14.98
2022-10-19T11:52:02.713Z,14.70
2022-10-19T11:54:34.204Z,14.68
2022-10-19T11:57:10.537Z,14.67
2022-10-19T11:59:42.863Z,14.89
2022-10-19T12:02:14.432Z,15.20
2022-10-19T12:04:45.984Z,15.50
2022-10-19T12:07:17.828Z,16.19
2022-10-19T12:09:49.322Z,16.47
2022-10-19T12:12:21.098Z,16.20
2022-10-19T12:14:52.594Z,15.73
2022-10-19T12:17:24.876Z,15.52
2022-10-19T12:19:56.784Z,15.51
2022-10-19T12:22:28.754Z,15.56
2022-10-19T12:25:00.336Z,15.73
2022-10-19T12:27:32.427Z,15.87
2022-10-19T12:30:04.150Z,15.92
2022-10-19T12:32:35.981Z,16.03
2022-10-19T12:35:07.504Z,15.75
2022-10-19T12:37:39.384Z,15.74
2022-10-19T12:40:10.889Z,15.86
2022-10-19T12:42:42.874Z,15.84
2022-10-19T12:45:14.612Z,16.04
2022-10-19T12:47:46.434Z,16.21
2022-10-19T12:50:17.946Z,16.02
2022-10-19T12:52:49.935Z,16.12
2022-10-19T12:55:21.700Z,16.34
2022-10-19T12:57:53.526Z,16.53
2022-10-19T13:00:25.114Z,16.30
2022-10-19T13:02:57.127Z,16.06
2022-10-19T13:05:28.669Z,15.80
2022-10-19T13:08:00.504Z,15.80
2022-10-19T13:10:32.128Z,15.94
2022-10-19T13:13:03.939Z,15.80
2022-10-19T13:15:35.834Z,15.67
2022-10-19T13:18:08.351Z,15.86
2022-10-19T13:23:13.391Z,16.04
2022-10-19T13:25:44.897Z,16.31
2022-10-19T13:28:16.722Z,16.16
2022-10-19T13:30:48.235Z,16.14
2022-10-19T13:33:20.151Z,16.38
2022-10-19T13:35:51.647Z,16.64
2022-10-19T13:38:24.543Z,16.54
2022-10-19T13:40:56.102Z,16.94
2022-10-19T13:43:27.935Z,17.22
2022-10-19T13:45:59.425Z,17.35
2022-10-19T13:48:31.416Z,17.37
2022-10-19T13:51:02.943Z,17.20
2022-10-19T13:53:34.878Z,17.42
2022-10-19T13:56:06.381Z,17.35
2022-10-19T13:58:38.218Z,16.92
2022-10-19T14:01:09.753Z,16.75
2022-10-19T14:03:41.545Z,16.91
2022-10-19T14:06:13.120Z,16.94
2022-10-19T14:08:45.045Z,17.12
2022-10-19T14:11:16.675Z,17.07
2022-10-19T14:13:48.577Z,17.13
2022-10-19T14:16:20.574Z,17.26
2022-10-19T14:18:52.404Z,17.32
2022-10-19T14:21:23.895Z,17.38
2022-10-19T14:23:55.711Z,17.59
2022-10-19T14:26:28.564Z,17.41
2022-10-19T14:29:00.453Z,17.56
2022-10-19T14:31:31.967Z,17.29
2022-10-19T14:34:03.776Z,17.12
2022-10-19T14:36:35.286Z,16.91
2022-10-19T14:39:07.863Z,16.70
2022-10-19T14:41:39.366Z,16.60
2022-10-19T14:44:11.328Z,16.34
2022-10-19T14:46:42.831Z,16.26
2022-10-19T14:49:14.486Z,16.08
2022-10-19T14:51:45.999Z,15.87
2022-10-19T14:54:17.799Z,15.57
2022-10-19T14:56:49.297Z,15.60
2022-10-19T14:59:21.090Z,15.60
2022-10-19T15:01:52.667Z,15.49
2022-10-19T15:04:24.599Z,15.38
2022-10-19T15:06:56.121Z,15.33
2022-10-19T15:09:37.656Z,15.11
2022-10-19T15:12:18.808Z,14.90
2022-10-19T15:14:50.669Z,14.71
2022-10-19T15:17:22.540Z,14.35
2022-10-19T15:19:55.715Z,14.19
2022-10-19T15:22:27.549Z,14.03
2022-10-19T15:24:59.069Z,13.93
2022-10-19T15:27:30.797Z,13.79
2022-10-19T15:30:02.366Z,13.66
2022-10-19T15:32:35.848Z,13.60
2022-10-19T15:35:11.132Z,13.51
2022-10-19T15:37:43.759Z,13.42
2022-10-19T15:40:15.283Z,13.35
2022-10-19T15:42:49.217Z,13.32
2022-10-19T15:45:20.715Z,13.26
2022-10-19T15:47:52.582Z,13.21
2022-10-19T15:50:24.075Z,13.12
2022-10-19T15:52:56.009Z,13.04
2022-10-19T15:55:27.512Z,12.99
2022-10-19T15:57:59.421Z,12.95
2022-10-19T16:00:30.926Z,12.89
2022-10-19T16:03:02.904Z,12.84
2022-10-19T16:05:34.413Z,12.77
2022-10-19T16:08:08.971Z,12.71
2022-10-19T16:10:43.259Z,12.64
2022-10-19T16:13:14.809Z,12.60
2022-10-19T16:15:50.057Z,12.52
2022-10-19T16:18:28.270Z,12.39
2022-10-19T16:20:59.772Z,12.26
2022-10-19T16:23:36.550Z,12.22
2022-10-19T16:26:11.012Z,12.16
2022-10-19T16:28:43.008Z,12.11
2022-10-19T16:31:14.908Z,12.05
2022-10-19T16:33:46.728Z,11.99
2022-10-19T16:36:20.282Z,11.94
2022-10-19T16:38:52.217Z,11.89
2022-10-19T16:41:23.739Z,11.85
2022-10-19T16:43:55.584Z,11.79
2022-10-19T16:46:27.091Z,11.77
2022-10-19T16:48:59.049Z,11.73
2022-10-19T16:51:30.597Z,11.68
2022-10-19T16:54:02.468Z,11.62
2022-10-19T16:56:33.979Z,11.58
2022-10-19T16:59:05.771Z,11.54
2022-10-19T17:01:37.280Z,11.52
2022-10-19T17:04:09.241Z,11.49
2022-10-19T17:06:40.900Z,11.45
2022-10-19T17:12:04.638Z,11.31
2022-10-19T17:14:36.759Z,11.25
2022-10-19T17:17:08.700Z,11.20
2022-10-19T17:19:40.234Z,11.12
2022-10-19T17:22:12.196Z,11.01
2022-10-19T17:24:46.185Z,10.90
2022-10-19T17:27:17.784Z,10.80
2022-10-19T17:29:49.314Z,10.73
2022-10-19T17:32:21.253Z,10.65
2022-10-19T17:34:52.755Z,10.65
2022-10-19T17:37:24.557Z,10.59
2022-10-19T17:39:56.074Z,10.53
2022-10-19T17:42:27.804Z,10.45
2022-10-19T17:44:59.304Z,10.39
2022-10-19T17:47:31.239Z,10.34
2022-10-19T17:50:02.811Z,10.27
2022-10-19T17:52:34.763Z,10.20
2022-10-19T17:55:12.224Z,10.15
2022-10-19T17:57:45.053Z,10.11
2022-10-19T18:00:16.591Z,10.06
2022-10-19T18:02:49.345Z,9.98
2022-10-19T18:05:20.896Z,9.92
2022-10-19T18:07:54.077Z,9.84
2022-10-19T18:10:25.632Z,9.76
2022-10-19T18:12:57.461Z,9.70
2022-10-19T18:15:28.968Z,9.62
2022-10-19T18:18:00.844Z,9.53
2022-10-19T18:20:32.345Z,9.48
2022-10-19T18:23:04.243Z,9.45
2022-10-19T18:25:49.742Z,9.42
2022-10-19T18:28:25.515Z,9.37
2022-10-19T18:30:57.046Z,9.31
2022-10-19T18:33:32.418Z,9.30
2022-10-19T18:36:04.129Z,9.29
2022-10-19T18:38:35.903Z,9.25
2022-10-19T18:41:07.494Z,9.22
2022-10-19T18:43:39.350Z,9.21
2022-10-19T18:46:10.924Z,9.21
2022-10-19T18:48:42.782Z,9.25
2022-10-19T18:51:15.786Z,9.27
2022-10-19T18:53:47.417Z,9.30
2022-10-19T18:56:18.983Z,9.30
2022-10-19T18:58:50.536Z,9.27
2022-10-19T19:01:26.970Z,9.26
2022-10-19T19:03:58.699Z,9.24
2022-10-19T19:06:30.566Z,9.21
2022-10-19T19:09:02.185Z,9.21
2022-10-19T19:11:36.731Z,9.19
2022-10-19T19:14:08.725Z,9.16
2022-10-19T19:16:40.588Z,9.12
2022-10-19T19:19:12.096Z,9.09
2022-10-19T19:21:44.849Z,9.06
2022-10-19T19:24:16.600Z,9.03
2022-10-19T19:26:49.571Z,9.00
2022-10-19T19:29:21.058Z,8.94
2022-10-19T19:31:53.806Z,8.86
2022-10-19T19:34:25.376Z,8.79
2022-10-19T19:36:57.281Z,8.72
2022-10-19T19:39:28.870Z,8.66
2022-10-19T19:42:00.406Z,8.61
2022-10-19T19:44:31.919Z,8.56
2022-10-19T19:47:03.987Z,8.51
2022-10-19T19:49:35.880Z,8.49
2022-10-19T19:52:07.419Z,8.44
2022-10-19T19:54:39.438Z,8.46
2022-10-19T19:57:11.435Z,8.41
2022-10-19T19:59:43.269Z,8.39
2022-10-19T20:04:49.328Z,8.40
2022-10-19T20:07:20.823Z,8.38
2022-10-19T20:09:53.639Z,8.36
2022-10-19T20:12:25.133Z,8.32
2022-10-19T20:14:57.188Z,8.30
2022-10-19T20:17:28.665Z,8.26
2022-10-19T20:20:00.554Z,8.20
2022-10-19T20:22:32.056Z,8.13
2022-10-19T20:25:03.886Z,8.08
2022-10-19T20:27:35.591Z,8.03
2022-10-19T20:30:07.758Z,8.00
2022-10-19T20:32:39.296Z,7.95
2022-10-19T20:35:11.327Z,7.90
2022-10-19T20:37:42.884Z,7.84
2022-10-19T20:40:16.218Z,7.78
2022-10-19T20:42:48.330Z,7.74
2022-10-19T20:45:20.159Z,7.68
2022-10-19T20:47:51.657Z,7.66
2022-10-19T20:50:23.480Z,7.63
2022-10-19T20:52:54.978Z,7.58
2022-10-19T20:55:26.967Z,7.52
2022-10-19T20:57:58.450Z,7.48
2022-10-19T21:00:30.294Z,7.47
2022-10-19T21:03:02.127Z,7.42
2022-10-19T21:05:33.615Z,7.41
2022-10-19T21:08:05.551Z,7.36
2022-10-19T21:10:37.060Z,7.32
2022-10-19T21:13:08.901Z,7.24
2022-10-19T21:15:40.429Z,7.20
2022-10-19T21:18:12.219Z,7.18
2022-10-19T21:20:43.753Z,7.12
2022-10-19T21:23:15.561Z,7.10
2022-10-19T21:25:47.048Z,7.03
2022-10-19T21:28:18.935Z,7.03
2022-10-19T21:30:50.429Z,7.02
2022-10-19T21:33:22.328Z,6.98
2022-10-19T21:35:53.810Z,6.96
2022-10-19T21:38:25.668Z,6.94
2022-10-19T21:40:57.359Z,6.93
2022-10-19T21:43:29.188Z,6.86
2022-10-19T21:46:00.675Z,6.85
2022-10-19T21:48:32.576Z,6.83
2022-10-19T21:51:04.070Z,6.81
2022-10-19T21:53:35.880Z,5.90
2022-10-19T21:56:07.369Z,6.77
2022-10-19T21:58:39.208Z,6.74
2022-10-19T22:01:10.794Z,6.74
2022-10-19T22:03:42.674Z,6.74
2022-10-19T22:06:14.182Z,6.72
2022-10-19T22:08:46.367Z,6.71
2022-10-19T22:11:17.922Z,6.70
2022-10-19T22:13:49.782Z,6.71
2022-10-19T22:16:21.266Z,6.70
2022-10-19T22:18:53.225Z,6.69
2022-10-19T22:21:24.882Z,6.68
2022-10-19T22:23:56.713Z,6.65
2022-10-19T22:26:28.206Z,6.64
2022-10-19T22:29:00.204Z,6.61
2022-10-19T22:31:31.798Z,6.65
2022-10-19T22:34:03.297Z,6.61
2022-10-19T22:36:35.111Z,6.61
2022-10-19T22:39:06.648Z,6.55
2022-10-19T22:41:38.586Z,6.55
2022-10-19T22:44:10.166Z,6.54
2022-10-19T22:46:42.004Z,6.54
2022-10-19T22:49:13.523Z,6.53
2022-10-19T22:51:45.532Z,6.51
2022-10-19T22:54:17.037Z,6.51
2022-10-19T22:56:49.612Z,6.48
2022-10-19T22:59:21.131Z,6.47
2022-10-19T23:01:53.044Z,6.41
2022-10-19T23:04:24.679Z,6.38
2022-10-19T23:06:56.536Z,6.40
2022-10-19T23:09:28.106Z,6.35
2022-10-19T23:11:59.983Z,6.30
2022-10-19T23:14:31.533Z,6.27
2022-10-19T23:19:55.358Z,6.22
2022-10-19T23:22:27.161Z,6.19
2022-10-19T23:24:58.659Z,6.16
2022-10-19T23:27:30.456Z,6.13
2022-10-19T23:30:01.968Z,6.10
2022-10-19T23:32:33.982Z,6.06
2022-10-19T23:35:05.569Z,6.05
2022-10-19T23:37:37.883Z,6.01
2022-10-19T23:40:09.701Z,5.95
2022-10-19T23:42:41.712Z,5.95
2022-10-19T23:45:15.141Z,5.90
2022-10-19T23:47:47.037Z,5.88
2022-10-19T23:50:18.521Z,5.83
2022-10-19T23:52:50.045Z,5.81
2022-10-19T23:55:21.559Z,5.77
2022-10-19T23:57:53.415Z,5.76
